createdAt,value
2019-01-17T00:00:33.309Z,979.21
2019-01-17T00:01:33.226Z,979.18
2019-01-17T00:02:33.144Z,979.29
2019-01-17T00:03:33.062Z,979.29
2019-01-17T00:04:32.980Z,979.38
2019-01-17T00:05:32.949Z,979.34
2019-01-17T00:06:32.816Z,979.26
2019-01-17T00:07:32.733Z,979.40
2019-01-17T00:08:32.652Z,979.44
2019-01-17T00:09:32.571Z,979.33
2019-01-17T00:10:32.488Z,979.32
2019-01-17T00:11:32.406Z,979.29
2019-01-17T00:12:32.326Z,979.41
2019-01-17T00:13:32.242Z,979.34
2019-01-17T00:14:32.164Z,979.37
2019-01-17T00:15:32.080Z,979.24
2019-01-17T00:16:32.000Z,979.45
2019-01-17T00:17:31.917Z,979.34
2019-01-17T00:18:31.833Z,979.27
2019-01-17T00:19:31.752Z,979.46
2019-01-17T00:20:31.670Z,979.25
2019-01-17T00:21:31.588Z,979.36
2019-01-17T00:22:31.505Z,979.33
2019-01-17T00:23:31.425Z,979.41
2019-01-17T00:24:31.343Z,979.38
2019-01-17T00:25:31.261Z,979.35
2019-01-17T00:26:31.178Z,979.34
2019-01-17T00:27:31.096Z,979.48
2019-01-17T00:28:31.015Z,979.49
2019-01-17T00:29:30.933Z,979.40
2019-01-17T00:30:30.850Z,979.46
2019-01-17T00:31:30.768Z,979.47
2019-01-17T00:32:30.687Z,979.61
2019-01-17T00:33:30.606Z,979.55
2019-01-17T00:34:30.523Z,979.54
2019-01-17T00:35:30.441Z,979.62
2019-01-17T00:36:30.360Z,979.60
2019-01-17T00:37:30.279Z,979.62
2019-01-17T00:38:30.196Z,979.53
2019-01-17T00:39:30.116Z,979.51
2019-01-17T00:40:30.082Z,979.54
2019-01-17T00:41:29.954Z,979.58
2019-01-17T00:42:29.872Z,979.56
2019-01-17T00:43:29.787Z,979.58
2019-01-17T00:44:29.709Z,979.44
2019-01-17T00:45:29.624Z,979.46
2019-01-17T00:46:29.543Z,979.55
2019-01-17T00:47:29.461Z,979.57
2019-01-17T00:48:29.379Z,979.48
2019-01-17T00:49:29.296Z,979.49
2019-01-17T00:50:29.213Z,979.49
2019-01-17T00:51:29.133Z,979.45
2019-01-17T00:52:29.052Z,979.48
2019-01-17T00:53:28.970Z,979.41
2019-01-17T00:54:28.887Z,979.41
2019-01-17T00:55:28.805Z,979.34
2019-01-17T00:56:28.724Z,979.47
2019-01-17T00:57:28.643Z,979.40
2019-01-17T00:58:28.558Z,979.33
2019-01-17T00:59:28.477Z,979.31
2019-01-17T01:00:28.397Z,979.24
2019-01-17T01:01:28.314Z,979.32
2019-01-17T01:02:28.233Z,979.24
2019-01-17T01:03:28.152Z,979.22
2019-01-17T01:04:28.069Z,979.15
2019-01-17T01:05:27.987Z,979.12
2019-01-17T01:06:27.905Z,979.12
2019-01-17T01:07:27.823Z,979.10
2019-01-17T01:08:27.743Z,979.04
2019-01-17T01:09:27.660Z,979.11
2019-01-17T01:10:27.595Z,979.10
2019-01-17T01:11:27.546Z,978.97
2019-01-17T01:12:27.414Z,979.05
2019-01-17T01:13:27.332Z,979.05
2019-01-17T01:14:27.251Z,979.07
2019-01-17T01:15:27.170Z,978.99
2019-01-17T01:16:27.088Z,978.97
2019-01-17T01:17:27.006Z,979.02
2019-01-17T01:18:26.923Z,979.03
2019-01-17T01:19:26.844Z,979.08
2019-01-17T01:20:26.760Z,979.05
2019-01-17T01:21:26.680Z,979.03
2019-01-17T01:22:26.597Z,979.07
2019-01-17T01:23:26.515Z,979.10
2019-01-17T01:24:26.434Z,979.06
2019-01-17T01:25:26.354Z,979.04
2019-01-17T01:26:26.370Z,979.00
2019-01-17T01:27:26.188Z,979.11
2019-01-17T01:28:26.106Z,978.97
2019-01-17T01:29:26.026Z,978.90
2019-01-17T01:30:25.943Z,978.96
2019-01-17T01:31:25.861Z,979.00
2019-01-17T01:32:25.781Z,979.00
2019-01-17T01:33:25.699Z,979.00
2019-01-17T01:34:25.616Z,978.99
2019-01-17T01:35:25.535Z,978.96
2019-01-17T01:36:25.453Z,978.96
2019-01-17T01:37:25.371Z,978.97
2019-01-17T01:38:25.289Z,979.03
2019-01-17T01:39:25.206Z,979.03
2019-01-17T01:40:25.125Z,979.01
2019-01-17T01:41:25.044Z,978.97
2019-01-17T01:42:25.014Z,978.99
2019-01-17T01:43:24.880Z,979.01
2019-01-17T01:44:24.799Z,979.13
2019-01-17T01:45:24.726Z,979.09
2019-01-17T01:46:24.636Z,978.96
2019-01-17T01:47:24.553Z,979.04
2019-01-17T01:48:24.521Z,978.98
2019-01-17T01:49:24.390Z,979.03
2019-01-17T01:50:24.307Z,979.05
2019-01-17T01:51:24.226Z,979.09
2019-01-17T01:52:24.145Z,978.99
2019-01-17T01:53:24.113Z,978.98
2019-01-17T01:54:23.980Z,979.12
2019-01-17T01:55:23.899Z,978.90
2019-01-17T01:56:23.818Z,979.03
2019-01-17T01:57:23.736Z,979.05
2019-01-17T01:58:23.655Z,979.00
2019-01-17T01:59:23.575Z,979.06
2019-01-17T02:00:23.492Z,979.01
2019-01-17T02:01:23.410Z,979.06
2019-01-17T02:02:23.326Z,978.97
2019-01-17T02:03:23.246Z,979.15
2019-01-17T02:04:23.167Z,978.98
2019-01-17T02:05:23.085Z,979.00
2019-01-17T02:06:23.000Z,979.10
2019-01-17T02:07:22.919Z,979.11
2019-01-17T02:08:22.837Z,979.09
2019-01-17T02:09:22.805Z,979.05
2019-01-17T02:10:22.673Z,979.14
2019-01-17T02:11:22.592Z,979.11
2019-01-17T02:12:22.511Z,979.10
2019-01-17T02:13:22.428Z,979.11
2019-01-17T02:14:22.346Z,979.14
2019-01-17T02:15:22.263Z,979.12
2019-01-17T02:16:22.183Z,979.20
2019-01-17T02:17:22.102Z,979.18
2019-01-17T02:18:22.020Z,979.10
2019-01-17T02:19:21.938Z,979.10
2019-01-17T02:20:21.855Z,979.15
2019-01-17T02:21:21.774Z,979.02
2019-01-17T02:22:21.693Z,979.15
2019-01-17T02:23:21.609Z,979.11
2019-01-17T02:24:21.578Z,979.13
2019-01-17T02:25:21.447Z,979.02
2019-01-17T02:26:21.364Z,978.99
2019-01-17T02:27:21.283Z,979.01
2019-01-17T02:28:21.203Z,979.06
2019-01-17T02:29:21.118Z,979.08
2019-01-17T02:30:21.037Z,979.06
2019-01-17T02:31:20.955Z,979.05
2019-01-17T02:32:20.875Z,979.02
2019-01-17T02:33:20.792Z,979.04
2019-01-17T02:34:20.710Z,979.07
2019-01-17T02:35:20.628Z,979.02
2019-01-17T02:36:20.546Z,979.02
2019-01-17T02:37:20.465Z,979.00
2019-01-17T02:38:20.396Z,978.93
2019-01-17T02:39:20.302Z,978.97
2019-01-17T02:40:20.271Z,978.88
2019-01-17T02:41:20.136Z,978.86
2019-01-17T02:42:20.055Z,978.81
2019-01-17T02:43:19.972Z,978.90
2019-01-17T02:44:19.892Z,978.95
2019-01-17T02:45:19.809Z,978.86
2019-01-17T02:46:19.727Z,978.88
2019-01-17T02:47:19.645Z,978.94
2019-01-17T02:48:19.564Z,978.94
2019-01-17T02:49:19.485Z,978.85
2019-01-17T02:50:19.400Z,978.85
2019-01-17T02:51:19.668Z,978.77
2019-01-17T02:52:19.236Z,978.80
2019-01-17T02:53:19.162Z,978.80
2019-01-17T02:54:19.073Z,978.91
2019-01-17T02:55:18.990Z,978.89
2019-01-17T02:56:18.908Z,978.82
2019-01-17T02:57:18.828Z,978.87
2019-01-17T02:58:18.745Z,978.77
2019-01-17T02:59:18.663Z,978.75
2019-01-17T03:00:18.582Z,978.81
2019-01-17T03:01:18.513Z,978.89
2019-01-17T03:02:18.416Z,978.85
2019-01-17T03:03:18.334Z,978.73
2019-01-17T03:04:18.254Z,978.65
2019-01-17T03:05:18.180Z,978.67
2019-01-17T03:06:18.090Z,978.63
2019-01-17T03:07:18.008Z,978.64
2019-01-17T03:08:17.928Z,978.68
2019-01-17T03:09:17.843Z,978.69
2019-01-17T03:10:17.762Z,978.65
2019-01-17T03:11:17.682Z,978.75
2019-01-17T03:12:17.599Z,978.53
2019-01-17T03:13:17.518Z,978.56
2019-01-17T03:14:17.433Z,978.60
2019-01-17T03:15:17.355Z,978.62
2019-01-17T03:16:17.270Z,978.50
2019-01-17T03:17:17.189Z,978.51
2019-01-17T03:18:17.207Z,978.50
2019-01-17T03:19:17.029Z,978.52
2019-01-17T03:20:16.947Z,978.56
2019-01-17T03:21:16.862Z,978.55
2019-01-17T03:22:16.779Z,978.45
2019-01-17T03:23:16.700Z,978.43
2019-01-17T03:24:16.616Z,978.50
2019-01-17T03:25:16.536Z,978.37
2019-01-17T03:26:16.453Z,978.57
2019-01-17T03:27:16.370Z,978.37
2019-01-17T03:28:16.291Z,978.53
2019-01-17T03:29:16.207Z,978.44
2019-01-17T03:30:16.143Z,978.40
2019-01-17T03:31:16.047Z,978.45
2019-01-17T03:32:15.962Z,978.33
2019-01-17T03:33:15.880Z,978.28
2019-01-17T03:34:15.796Z,978.21
2019-01-17T03:35:15.714Z,978.22
2019-01-17T03:36:15.632Z,978.21
2019-01-17T03:37:15.551Z,978.23
2019-01-17T03:38:15.468Z,978.30
2019-01-17T03:39:15.389Z,978.16
2019-01-17T03:40:15.307Z,978.17
2019-01-17T03:41:15.223Z,978.10
2019-01-17T03:42:15.139Z,978.23
2019-01-17T03:43:15.060Z,978.17
2019-01-17T03:44:14.975Z,978.11
2019-01-17T03:45:14.900Z,978.21
2019-01-17T03:46:14.814Z,978.21
2019-01-17T03:47:14.731Z,978.32
2019-01-17T03:48:14.649Z,978.21
2019-01-17T03:49:14.567Z,978.26
2019-01-17T03:50:14.485Z,978.18
2019-01-17T03:51:14.402Z,978.24
2019-01-17T03:52:14.321Z,978.16
2019-01-17T03:53:14.239Z,978.18
2019-01-17T03:54:14.156Z,978.16
2019-01-17T03:55:14.073Z,978.15
2019-01-17T03:56:13.993Z,978.04
2019-01-17T03:57:13.911Z,978.03
2019-01-17T03:58:13.828Z,978.09
2019-01-17T03:59:13.751Z,978.16
2019-01-17T04:00:13.663Z,978.03
2019-01-17T04:01:13.582Z,978.00
2019-01-17T04:02:13.500Z,978.18
2019-01-17T04:03:13.417Z,978.13
2019-01-17T04:04:13.335Z,978.09
2019-01-17T04:05:13.354Z,978.06
2019-01-17T04:06:13.171Z,977.95
2019-01-17T04:07:13.090Z,977.97
2019-01-17T04:08:13.009Z,978.04
2019-01-17T04:09:12.927Z,977.98
2019-01-17T04:10:12.845Z,978.19
2019-01-17T04:11:12.761Z,978.02
2019-01-17T04:12:12.679Z,978.05
2019-01-17T04:13:12.599Z,978.00
2019-01-17T04:14:12.515Z,977.99
2019-01-17T04:15:12.433Z,978.09
2019-01-17T04:16:12.353Z,978.01
2019-01-17T04:17:12.270Z,977.97
2019-01-17T04:18:12.188Z,977.99
2019-01-17T04:19:12.104Z,977.95
2019-01-17T04:20:12.029Z,977.94
2019-01-17T04:21:11.964Z,977.92
2019-01-17T04:22:11.860Z,977.93
2019-01-17T04:23:11.777Z,977.82
2019-01-17T04:24:11.695Z,977.79
2019-01-17T04:25:11.614Z,977.83
2019-01-17T04:26:11.532Z,977.90
2019-01-17T04:27:11.450Z,977.92
2019-01-17T04:28:11.369Z,977.90
2019-01-17T04:29:11.285Z,977.91
2019-01-17T04:30:11.204Z,977.90
2019-01-17T04:31:11.122Z,977.81
2019-01-17T04:32:11.040Z,977.87
2019-01-17T04:33:10.960Z,977.75
2019-01-17T04:34:10.877Z,978.00
2019-01-17T04:35:10.794Z,977.86
2019-01-17T04:36:10.714Z,977.94
2019-01-17T04:37:10.631Z,977.89
2019-01-17T04:38:10.555Z,977.96
2019-01-17T04:39:10.466Z,977.82
2019-01-17T04:40:10.386Z,977.79
2019-01-17T04:41:10.305Z,977.84
2019-01-17T04:42:10.224Z,977.81
2019-01-17T04:43:10.141Z,977.83
2019-01-17T04:44:10.057Z,977.79
2019-01-17T04:45:09.975Z,977.80
2019-01-17T04:46:09.905Z,977.79
2019-01-17T04:47:09.814Z,977.69
2019-01-17T04:48:09.729Z,977.77
2019-01-17T04:49:09.646Z,977.71
2019-01-17T04:50:09.581Z,977.77
2019-01-17T04:51:09.484Z,977.81
2019-01-17T04:52:09.405Z,977.82
2019-01-17T04:53:09.320Z,977.71
2019-01-17T04:54:09.238Z,977.67
2019-01-17T04:55:09.155Z,977.71
2019-01-17T04:56:09.079Z,977.78
2019-01-17T04:57:08.991Z,977.74
2019-01-17T04:58:08.911Z,977.77
2019-01-17T04:59:08.828Z,977.77
2019-01-17T05:00:08.748Z,977.74
2019-01-17T05:01:08.665Z,977.88
2019-01-17T05:02:08.584Z,977.88
2019-01-17T05:03:08.501Z,977.86
2019-01-17T05:04:08.419Z,977.71
2019-01-17T05:05:08.338Z,977.85
2019-01-17T05:06:08.256Z,977.82
2019-01-17T05:07:08.173Z,977.84
2019-01-17T05:08:08.093Z,977.88
2019-01-17T05:09:08.064Z,977.82
2019-01-17T05:10:07.934Z,977.75
2019-01-17T05:11:07.847Z,977.78
2019-01-17T05:12:07.764Z,977.79
2019-01-17T05:13:07.683Z,977.84
2019-01-17T05:14:07.601Z,977.80
2019-01-17T05:15:07.518Z,977.80
2019-01-17T05:16:07.437Z,977.73
2019-01-17T05:17:07.354Z,977.82
2019-01-17T05:18:07.313Z,977.74
2019-01-17T05:19:07.192Z,977.81
2019-01-17T05:20:07.109Z,977.91
2019-01-17T05:21:07.027Z,977.77
2019-01-17T05:22:06.944Z,977.79
2019-01-17T05:23:06.972Z,977.85
2019-01-17T05:24:06.781Z,977.82
2019-01-17T05:25:12.425Z,977.83
2019-01-17T05:26:06.616Z,977.79
2019-01-17T05:27:06.534Z,977.86
2019-01-17T05:28:06.455Z,977.83
2019-01-17T05:29:06.370Z,977.79
2019-01-17T05:30:06.288Z,977.76
2019-01-17T05:31:06.207Z,977.83
2019-01-17T05:32:06.127Z,977.71
2019-01-17T05:33:06.042Z,977.80
2019-01-17T05:34:05.961Z,977.76
2019-01-17T05:35:05.878Z,977.77
2019-01-17T05:36:05.798Z,977.73
2019-01-17T05:37:05.716Z,977.76
2019-01-17T05:38:05.632Z,977.75
2019-01-17T05:39:05.551Z,977.74
2019-01-17T05:40:05.469Z,977.80
2019-01-17T05:41:05.387Z,977.81
2019-01-17T05:42:05.303Z,977.69
2019-01-17T05:43:05.221Z,977.76
2019-01-17T05:44:05.141Z,977.85
2019-01-17T05:45:05.057Z,977.75
2019-01-17T05:46:04.977Z,977.80
2019-01-17T05:47:04.894Z,977.82
2019-01-17T05:48:04.811Z,977.81
2019-01-17T05:49:04.731Z,977.80
2019-01-17T05:50:04.648Z,977.89
2019-01-17T05:51:04.568Z,977.79
2019-01-17T05:52:04.483Z,977.85
2019-01-17T05:53:04.401Z,977.82
2019-01-17T05:54:04.318Z,977.79
2019-01-17T05:55:04.238Z,977.80
2019-01-17T05:56:04.156Z,977.78
2019-01-17T05:57:04.080Z,977.83
2019-01-17T05:58:03.994Z,977.81
2019-01-17T05:59:03.910Z,977.79
2019-01-17T06:00:03.831Z,977.91
2019-01-17T06:01:03.746Z,977.82
2019-01-17T06:02:03.665Z,977.93
2019-01-17T06:03:03.580Z,977.82
2019-01-17T06:04:03.498Z,977.87
2019-01-17T06:05:03.416Z,977.82
2019-01-17T06:06:03.334Z,977.87
2019-01-17T06:07:03.259Z,977.81
2019-01-17T06:08:03.170Z,977.81
2019-01-17T06:09:03.090Z,977.83
2019-01-17T06:10:03.005Z,977.82
2019-01-17T06:11:02.931Z,977.85
2019-01-17T06:12:02.843Z,977.83
2019-01-17T06:13:02.761Z,977.81
2019-01-17T06:14:02.678Z,977.74
2019-01-17T06:15:02.596Z,977.67
2019-01-17T06:16:02.514Z,977.78
2019-01-17T06:17:02.432Z,977.71
2019-01-17T06:18:02.349Z,977.77
2019-01-17T06:19:02.267Z,977.54
2019-01-17T06:20:02.185Z,977.67
2019-01-17T06:21:02.106Z,977.69
2019-01-17T06:22:02.020Z,977.69
2019-01-17T06:23:01.939Z,977.67
2019-01-17T06:24:01.854Z,977.64
2019-01-17T06:25:01.780Z,977.57
2019-01-17T06:26:01.692Z,977.64
2019-01-17T06:27:01.610Z,977.60
2019-01-17T06:28:01.526Z,977.62
2019-01-17T06:29:01.444Z,977.67
2019-01-17T06:30:01.363Z,977.59
2019-01-17T06:31:01.281Z,977.56
2019-01-17T06:32:01.197Z,977.61
2019-01-17T06:33:01.117Z,977.61
2019-01-17T06:34:01.034Z,977.51
2019-01-17T06:35:00.952Z,977.56
2019-01-17T06:36:00.871Z,977.50
2019-01-17T06:37:00.788Z,977.49
2019-01-17T06:38:00.704Z,977.51
2019-01-17T06:39:00.623Z,977.53
2019-01-17T06:40:00.542Z,977.52
2019-01-17T06:41:00.459Z,977.54
2019-01-17T06:42:00.376Z,977.58
2019-01-17T06:43:00.297Z,977.54
2019-01-17T06:44:00.216Z,977.49
2019-01-17T06:45:00.168Z,977.51
2019-01-17T06:46:00.050Z,977.49
2019-01-17T06:46:59.970Z,977.50
2019-01-17T06:47:59.887Z,977.50
2019-01-17T06:48:59.804Z,977.45
2019-01-17T06:49:59.723Z,977.50
2019-01-17T06:50:59.639Z,977.49
2019-01-17T06:51:59.558Z,977.51
2019-01-17T06:52:59.477Z,977.52
2019-01-17T06:53:59.393Z,977.55
2019-01-17T06:54:59.311Z,977.57
2019-01-17T06:55:59.228Z,977.50
2019-01-17T06:56:59.148Z,977.57
2019-01-17T06:57:59.066Z,977.50
2019-01-17T06:58:58.985Z,977.53
2019-01-17T06:59:58.902Z,977.57
2019-01-17T07:00:58.819Z,977.56
2019-01-17T07:01:58.738Z,977.57
2019-01-17T07:02:58.655Z,977.55
2019-01-17T07:03:58.576Z,977.58
2019-01-17T07:04:58.491Z,977.59
2019-01-17T07:05:58.411Z,977.54
2019-01-17T07:06:58.328Z,977.55
2019-01-17T07:07:58.247Z,977.55
2019-01-17T07:08:58.164Z,977.67
2019-01-17T07:09:58.081Z,977.58
2019-01-17T07:10:58.000Z,977.57
2019-01-17T07:11:57.916Z,977.48
2019-01-17T07:12:57.837Z,977.56
2019-01-17T07:13:57.754Z,977.51
2019-01-17T07:14:57.672Z,977.51
2019-01-17T07:15:57.592Z,977.47
2019-01-17T07:16:57.549Z,977.50
2019-01-17T07:17:57.428Z,977.52
2019-01-17T07:18:57.343Z,977.56
2019-01-17T07:19:57.262Z,977.51
2019-01-17T07:20:57.181Z,977.48
2019-01-17T07:21:57.097Z,977.61
2019-01-17T07:22:57.016Z,977.54
2019-01-17T07:23:56.936Z,977.55
2019-01-17T07:24:56.854Z,977.57
2019-01-17T07:25:56.771Z,977.55
2019-01-17T07:26:56.690Z,977.55
2019-01-17T07:27:56.607Z,977.44
2019-01-17T07:28:56.524Z,977.52
2019-01-17T07:29:56.445Z,977.50
2019-01-17T07:30:56.361Z,977.53
2019-01-17T07:31:56.281Z,977.52
2019-01-17T07:32:56.198Z,977.45
2019-01-17T07:33:56.118Z,977.46
2019-01-17T07:34:56.036Z,977.46
2019-01-17T07:35:55.954Z,977.47
2019-01-17T07:36:55.871Z,977.46
2019-01-17T07:37:55.791Z,977.48
2019-01-17T07:38:55.707Z,977.43
2019-01-17T07:39:55.625Z,977.57
2019-01-17T07:40:55.545Z,977.46
2019-01-17T07:41:55.462Z,977.53
2019-01-17T07:42:55.379Z,977.53
2019-01-17T07:43:55.299Z,977.53
2019-01-17T07:44:55.217Z,977.52
2019-01-17T07:45:55.134Z,977.57
2019-01-17T07:46:55.053Z,977.56
2019-01-17T07:47:54.971Z,977.56
2019-01-17T07:48:54.889Z,977.55
2019-01-17T07:49:54.808Z,977.58
2019-01-17T07:50:54.724Z,977.52
2019-01-17T07:51:54.644Z,977.59
2019-01-17T07:52:54.562Z,977.55
2019-01-17T07:53:54.485Z,977.58
2019-01-17T07:54:54.398Z,977.64
2019-01-17T07:55:54.316Z,977.60
2019-01-17T07:56:54.237Z,977.60
2019-01-17T07:57:54.152Z,977.59
2019-01-17T07:58:54.070Z,977.57
2019-01-17T07:59:53.987Z,977.62
2019-01-17T08:00:53.908Z,977.64
2019-01-17T08:01:53.829Z,977.66
2019-01-17T08:02:53.742Z,977.68
2019-01-17T08:03:53.661Z,977.68
2019-01-17T08:04:53.578Z,977.73
2019-01-17T08:05:53.496Z,977.74
2019-01-17T08:06:56.703Z,977.64
2019-01-17T08:07:53.339Z,977.73
2019-01-17T08:08:53.250Z,977.71
2019-01-17T08:09:53.170Z,977.67
2019-01-17T08:10:53.086Z,977.72
2019-01-17T08:11:53.006Z,977.68
2019-01-17T08:12:52.923Z,977.64
2019-01-17T08:13:52.841Z,977.64
2019-01-17T08:14:52.758Z,977.69
2019-01-17T08:15:52.678Z,977.64
2019-01-17T08:16:52.595Z,977.62
2019-01-17T08:17:52.515Z,977.63
2019-01-17T08:18:52.431Z,977.60
2019-01-17T08:19:52.356Z,977.57
2019-01-17T08:20:52.268Z,977.69
2019-01-17T08:21:52.186Z,977.60
2019-01-17T08:22:52.106Z,977.60
2019-01-17T08:23:52.022Z,977.55
2019-01-17T08:24:51.943Z,977.62
2019-01-17T08:25:54.348Z,977.57
2019-01-17T08:26:51.775Z,977.63
2019-01-17T08:27:51.698Z,977.68
2019-01-17T08:28:51.613Z,977.67
2019-01-17T08:29:51.531Z,977.69
2019-01-17T08:30:51.449Z,977.70
2019-01-17T08:31:51.371Z,977.72
2019-01-17T08:32:51.288Z,977.74
2019-01-17T08:33:51.204Z,977.75
2019-01-17T08:34:51.123Z,977.67
2019-01-17T08:35:51.041Z,977.71
2019-01-17T08:36:50.960Z,977.66
2019-01-17T08:37:50.878Z,977.68
2019-01-17T08:38:50.799Z,977.69
2019-01-17T08:39:50.716Z,977.73
2019-01-17T08:40:50.634Z,977.70
2019-01-17T08:41:50.553Z,977.71
2019-01-17T08:42:50.471Z,977.72
2019-01-17T08:43:50.390Z,977.75
2019-01-17T08:44:50.309Z,977.78
2019-01-17T08:45:50.225Z,977.79
2019-01-17T08:46:50.146Z,977.77
2019-01-17T08:47:50.064Z,977.80
2019-01-17T08:48:49.981Z,977.81
2019-01-17T08:49:49.900Z,977.81
2019-01-17T08:50:49.823Z,977.69
2019-01-17T08:51:49.737Z,977.70
2019-01-17T08:52:49.655Z,977.71
2019-01-17T08:53:49.574Z,977.66
2019-01-17T08:54:49.493Z,977.65
2019-01-17T08:55:49.412Z,977.69
2019-01-17T08:56:49.331Z,977.66
2019-01-17T08:57:49.249Z,977.68
2019-01-17T08:58:49.167Z,977.72
2019-01-17T08:59:49.086Z,977.73
2019-01-17T09:00:49.005Z,977.80
2019-01-17T09:01:48.926Z,977.76
2019-01-17T09:02:48.842Z,977.68
2019-01-17T09:03:48.761Z,977.68
2019-01-17T09:04:48.680Z,977.72
2019-01-17T09:05:48.598Z,977.77
2019-01-17T09:06:48.517Z,977.74
2019-01-17T09:07:48.440Z,977.73
2019-01-17T09:08:48.354Z,977.73
2019-01-17T09:09:48.273Z,977.80
2019-01-17T09:10:48.191Z,977.74
2019-01-17T09:11:48.111Z,977.73
2019-01-17T09:12:48.030Z,977.72
2019-01-17T09:13:47.948Z,977.74
2019-01-17T09:14:47.868Z,977.81
2019-01-17T09:15:47.787Z,977.79
2019-01-17T09:16:47.706Z,977.81
2019-01-17T09:17:47.623Z,977.81
2019-01-17T09:18:47.543Z,977.83
2019-01-17T09:19:47.462Z,977.84
2019-01-17T09:20:47.389Z,977.82
2019-01-17T09:21:47.299Z,977.86
2019-01-17T09:22:47.217Z,977.85
2019-01-17T09:23:47.138Z,977.94
2019-01-17T09:24:47.057Z,977.95
2019-01-17T09:25:46.974Z,977.95
2019-01-17T09:26:46.894Z,977.91
2019-01-17T09:27:46.813Z,978.00
2019-01-17T09:28:46.732Z,978.01
2019-01-17T09:29:46.651Z,978.04
2019-01-17T09:30:46.569Z,978.04
2019-01-17T09:31:46.489Z,977.99
2019-01-17T09:32:46.408Z,977.99
2019-01-17T09:33:46.327Z,977.97
2019-01-17T09:34:46.246Z,977.95
2019-01-17T09:35:46.166Z,978.02
2019-01-17T09:36:46.085Z,978.01
2019-01-17T09:37:46.005Z,978.01
2019-01-17T09:38:45.925Z,977.99
2019-01-17T09:39:45.842Z,978.02
2019-01-17T09:40:45.761Z,977.98
2019-01-17T09:41:46.121Z,978.02
2019-01-17T09:42:45.597Z,978.01
2019-01-17T09:43:45.521Z,978.01
2019-01-17T09:44:45.488Z,978.00
2019-01-17T09:45:45.355Z,978.07
2019-01-17T09:46:45.275Z,978.11
2019-01-17T09:47:45.195Z,978.07
2019-01-17T09:48:45.113Z,978.08
2019-01-17T09:49:45.032Z,978.12
2019-01-17T09:50:44.951Z,978.04
2019-01-17T09:51:44.870Z,978.10
2019-01-17T09:52:44.794Z,978.10
2019-01-17T09:53:44.708Z,978.11
2019-01-17T09:54:44.629Z,978.13
2019-01-17T09:55:44.551Z,978.17
2019-01-17T09:56:44.467Z,978.11
2019-01-17T09:57:44.385Z,978.15
2019-01-17T09:58:44.303Z,978.15
2019-01-17T09:59:44.224Z,978.14
2019-01-17T10:00:44.143Z,978.14
2019-01-17T10:01:44.061Z,978.16
2019-01-17T10:02:43.980Z,978.19
2019-01-17T10:03:43.901Z,978.17
2019-01-17T10:04:43.819Z,978.20
2019-01-17T10:05:43.738Z,978.24
2019-01-17T10:06:43.657Z,978.23
2019-01-17T10:07:43.577Z,978.18
2019-01-17T10:08:43.496Z,978.21
2019-01-17T10:09:43.414Z,978.15
2019-01-17T10:10:43.334Z,978.25
2019-01-17T10:11:43.253Z,978.21
2019-01-17T10:12:43.173Z,978.21
2019-01-17T10:13:43.092Z,978.18
2019-01-17T10:14:43.011Z,978.24
2019-01-17T10:15:42.931Z,978.20
2019-01-17T10:16:45.149Z,978.22
2019-01-17T10:17:42.769Z,978.25
2019-01-17T10:18:42.689Z,978.21
2019-01-17T10:19:42.606Z,978.24
2019-01-17T10:20:42.526Z,978.27
2019-01-17T10:21:42.446Z,978.27
2019-01-17T10:22:42.364Z,978.26
2019-01-17T10:23:42.284Z,978.28
2019-01-17T10:24:42.204Z,978.31
2019-01-17T10:25:42.125Z,978.28
2019-01-17T10:26:42.040Z,978.32
2019-01-17T10:27:41.961Z,978.27
2019-01-17T10:28:41.881Z,978.30
2019-01-17T10:29:41.799Z,978.23
2019-01-17T10:30:41.719Z,978.32
2019-01-17T10:31:41.638Z,978.29
2019-01-17T10:32:41.557Z,978.46
2019-01-17T10:33:41.474Z,978.26
2019-01-17T10:34:41.395Z,978.31
2019-01-17T10:35:41.317Z,978.30
2019-01-17T10:36:41.234Z,978.30
2019-01-17T10:37:41.151Z,978.35
2019-01-17T10:38:41.071Z,978.31
2019-01-17T10:39:40.990Z,978.32
2019-01-17T10:40:40.909Z,978.32
2019-01-17T10:41:40.827Z,978.31
2019-01-17T10:42:40.748Z,978.35
2019-01-17T10:43:40.667Z,978.34
2019-01-17T10:44:40.585Z,978.33
2019-01-17T10:45:40.505Z,978.40
2019-01-17T10:46:40.424Z,978.38
2019-01-17T10:47:40.343Z,978.36
2019-01-17T10:48:40.263Z,978.33
2019-01-17T10:49:40.180Z,978.36
2019-01-17T10:50:40.100Z,978.38
2019-01-17T10:51:40.019Z,978.36
2019-01-17T10:52:39.939Z,978.15
2019-01-17T10:53:39.857Z,978.12
2019-01-17T10:54:39.777Z,978.18
2019-01-17T10:55:39.695Z,978.29
2019-01-17T10:56:41.673Z,978.24
2019-01-17T10:57:39.535Z,978.26
2019-01-17T10:58:39.453Z,978.21
2019-01-17T10:59:39.374Z,978.30
2019-01-17T11:00:39.294Z,978.26
2019-01-17T11:01:39.213Z,978.20
2019-01-17T11:02:39.132Z,978.24
2019-01-17T11:03:39.054Z,978.15
2019-01-17T11:04:38.973Z,978.20
2019-01-17T11:05:38.893Z,978.24
2019-01-17T11:06:38.813Z,978.07
2019-01-17T11:07:38.734Z,978.08
2019-01-17T11:08:38.655Z,978.10
2019-01-17T11:09:38.574Z,978.15
2019-01-17T11:10:38.494Z,978.08
2019-01-17T11:11:38.413Z,978.09
2019-01-17T11:12:38.336Z,978.09
2019-01-17T11:13:38.256Z,978.15
2019-01-17T11:14:38.174Z,978.15
2019-01-17T11:15:38.131Z,978.08
2019-01-17T11:16:38.017Z,978.07
2019-01-17T11:17:37.938Z,978.05
2019-01-17T11:18:37.857Z,978.14
2019-01-17T11:19:37.776Z,978.07
2019-01-17T11:20:37.698Z,978.05
2019-01-17T11:21:37.617Z,978.07
2019-01-17T11:22:37.541Z,978.10
2019-01-17T11:23:37.461Z,978.08
2019-01-17T11:24:37.378Z,978.19
2019-01-17T11:25:37.299Z,977.98
2019-01-17T11:26:37.218Z,977.99
2019-01-17T11:27:37.142Z,977.93
2019-01-17T11:28:37.059Z,977.95
2019-01-17T11:29:36.977Z,977.95
2019-01-17T11:30:36.898Z,977.93
2019-01-17T11:31:36.818Z,977.90
2019-01-17T11:32:36.740Z,977.89
2019-01-17T11:33:36.661Z,977.86
2019-01-17T11:34:36.577Z,977.88
2019-01-17T11:35:36.504Z,977.89
2019-01-17T11:36:36.423Z,977.99
2019-01-17T11:37:36.340Z,977.90
2019-01-17T11:38:36.256Z,977.86
2019-01-17T11:39:36.176Z,977.79
2019-01-17T11:40:36.094Z,977.90
2019-01-17T11:41:36.014Z,977.95
2019-01-17T11:42:35.935Z,977.90
2019-01-17T11:43:35.853Z,978.05
2019-01-17T11:44:35.772Z,977.93
2019-01-17T11:45:35.691Z,977.95
2019-01-17T11:46:35.613Z,977.91
2019-01-17T11:47:35.531Z,977.85
2019-01-17T11:48:35.449Z,977.97
2019-01-17T11:49:35.367Z,977.92
2019-01-17T11:50:35.287Z,978.15
2019-01-17T11:51:35.205Z,978.07
2019-01-17T11:52:35.125Z,978.05
2019-01-17T11:53:35.076Z,978.02
2019-01-17T11:54:34.963Z,977.89
2019-01-17T11:55:34.885Z,977.88
2019-01-17T11:56:40.796Z,977.85
2019-01-17T11:57:34.719Z,977.84
2019-01-17T11:58:34.638Z,977.87
2019-01-17T11:59:34.560Z,977.74
2019-01-17T12:00:34.476Z,977.80
2019-01-17T12:01:34.394Z,977.72
2019-01-17T12:02:39.157Z,977.73
2019-01-17T12:03:34.232Z,977.61
2019-01-17T12:04:34.152Z,977.60
2019-01-17T12:05:34.069Z,977.60
2019-01-17T12:06:33.988Z,977.54
2019-01-17T12:07:33.912Z,977.59
2019-01-17T12:08:33.825Z,977.59
2019-01-17T12:09:33.745Z,977.51
2019-01-17T12:10:33.663Z,977.55
2019-01-17T12:11:33.581Z,977.52
2019-01-17T12:12:33.503Z,977.62
2019-01-17T12:13:33.420Z,977.55
2019-01-17T12:14:33.339Z,977.61
2019-01-17T12:15:33.258Z,977.57
2019-01-17T12:16:33.177Z,977.53
2019-01-17T12:17:33.095Z,977.47
2019-01-17T12:18:33.014Z,977.47
2019-01-17T12:19:32.933Z,977.51
2019-01-17T12:20:32.853Z,977.55
2019-01-17T12:21:32.771Z,977.60
2019-01-17T12:22:32.690Z,977.53
2019-01-17T12:23:32.609Z,977.52
2019-01-17T12:24:32.528Z,977.48
2019-01-17T12:25:32.447Z,977.59
2019-01-17T12:26:32.366Z,977.45
2019-01-17T12:27:32.286Z,977.51